KLCI/LCI METAR and TAF weather

Enter ICAO airport designator
Station Type Date Time Source
KLCI METAR 2020/09/19 05:56 UTC NOAA

KLCI 190556Z AUTO 00000KT 10SM CLR 03/01 A3019 RMK AO2 SLP227 T00330011 10117 20028 51013


Station Type Date Time Source
KLCI Decoded METAR 2020/09/19 05:56 UTC NOAA

Laconia, Laconia Municipal Airport, NH, United States (KLCI) 43-34N 071-25W
Sep 19, 2020 - 01:56 AM EDT / 2020.09.19 0556 UTC
Wind: Calm:0
Visibility: 10 mile(s):0
Sky conditions: clear
Temperature: 37.9 F (3.3 C)
Dew Point: 34.0 F (1.1 C)
Relative Humidity: 85%
Pressure (altimeter): 30.19 in. Hg (1022 hPa)
Pressure tendency: 0.04 inches (1.3 hPa) higher than three hours ago
ob: KLCI 190556Z AUTO 00000KT 10SM CLR 03/01 A3019 RMK AO2 SLP227 T00330011 10117 20028 51013
cycle: 6

Station Type Date Time Source
KLCI TAF UTC NOAA

Error!

Example: see airport list